sensor_id;sensor_type;location;lat;lon;timestamp;P1;durP1;ratioP1;P2;durP2;ratioP2
1026;SDS011;502;48.746;9.214;2024-03-23T00:55:13;5.97;;;3.80;;
1026;SDS011;502;48.746;9.214;2024-03-23T00:57:39;4.60;;;3.90;;
1026;SDS011;502;48.746;9.214;2024-03-23T01:00:06;3.90;;;3.30;;
1026;SDS011;502;48.746;9.214;2024-03-23T01:02:35;4.50;;;3.50;;
1026;SDS011;502;48.746;9.214;2024-03-23T01:05:01;5.77;;;4.30;;
1026;SDS011;502;48.746;9.214;2024-03-23T01:07:27;3.97;;;3.33;;
1026;SDS011;502;48.746;9.214;2024-03-23T01:09:53;3.70;;;3.30;;
1026;SDS011;502;48.746;9.214;2024-03-23T01:12:20;4.03;;;3.63;;
1026;SDS011;502;48.746;9.214;2024-03-23T01:14:46;4.57;;;3.67;;
1026;SDS011;502;48.746;9.214;2024-03-23T01:17:12;4.50;;;3.53;;
1026;SDS011;502;48.746;9.214;2024-03-23T01:19:39;3.93;;;3.27;;
1026;SDS011;502;48.746;9.214;2024-03-23T01:22:06;5.80;;;3.87;;
1026;SDS011;502;48.746;9.214;2024-03-23T01:24:33;3.47;;;3.17;;
1026;SDS011;502;48.746;9.214;2024-03-23T01:26:58;3.93;;;3.30;;
1026;SDS011;502;48.746;9.214;2024-03-23T01:29:26;4.43;;;3.10;;
1026;SDS011;502;48.746;9.214;2024-03-23T01:31:51;3.70;;;3.40;;
1026;SDS011;502;48.746;9.214;2024-03-23T01:34:18;4.30;;;3.37;;
1026;SDS011;502;48.746;9.214;2024-03-23T01:36:45;4.77;;;4.00;;
1026;SDS011;502;48.746;9.214;2024-03-23T01:39:12;4.77;;;3.30;;
1026;SDS011;502;48.746;9.214;2024-03-23T01:41:39;3.07;;;2.50;;
1026;SDS011;502;48.746;9.214;2024-03-23T01:44:07;3.37;;;3.07;;
1026;SDS011;502;48.746;9.214;2024-03-23T01:46:34;4.53;;;3.20;;
1026;SDS011;502;48.746;9.214;2024-03-23T01:49:02;3.73;;;3.33;;
1026;SDS011;502;48.746;9.214;2024-03-23T01:51:28;4.23;;;2.80;;
1026;SDS011;502;48.746;9.214;2024-03-23T01:53:55;4.60;;;3.43;;
1026;SDS011;502;48.746;9.214;2024-03-23T01:56:21;4.00;;;3.30;;
1026;SDS011;502;48.746;9.214;2024-03-23T01:58:48;4.00;;;3.40;;
1026;SDS011;502;48.746;9.214;2024-03-23T02:01:14;3.83;;;3.37;;
1026;SDS011;502;48.746;9.214;2024-03-23T02:03:42;3.30;;;2.90;;
1026;SDS011;502;48.746;9.214;2024-03-23T02:06:07;4.20;;;3.13;;
1026;SDS011;502;48.746;9.214;2024-03-23T02:08:34;3.47;;;3.17;;
1026;SDS011;502;48.746;9.214;2024-03-23T02:10:59;3.00;;;2.73;;
1026;SDS011;502;48.746;9.214;2024-03-23T02:13:26;3.43;;;2.93;;
1026;SDS011;502;48.746;9.214;2024-03-23T02:15:52;4.30;;;3.10;;
1026;SDS011;502;48.746;9.214;2024-03-23T02:18:18;4.47;;;3.47;;
1026;SDS011;502;48.746;9.214;2024-03-23T02:20:45;3.77;;;3.10;;
1026;SDS011;502;48.746;9.214;2024-03-23T02:23:16;4.80;;;3.03;;
1026;SDS011;502;48.746;9.214;2024-03-23T02:25:43;4.70;;;3.30;;
1026;SDS011;502;48.746;9.214;2024-03-23T02:28:10;3.37;;;3.07;;
1026;SDS011;502;48.746;9.214;2024-03-23T02:30:36;3.97;;;3.20;;
1026;SDS011;502;48.746;9.214;2024-03-23T02:33:03;3.57;;;3.27;;
1026;SDS011;502;48.746;9.214;2024-03-23T02:35:28;5.30;;;3.70;;
1026;SDS011;502;48.746;9.214;2024-03-23T02:37:55;3.63;;;3.00;;
1026;SDS011;502;48.746;9.214;2024-03-23T02:40:23;4.40;;;3.17;;
1026;SDS011;502;48.746;9.214;2024-03-23T02:42:50;3.50;;;3.20;;
1026;SDS011;502;48.746;9.214;2024-03-23T02:45:16;4.10;;;3.70;;
1026;SDS011;502;48.746;9.214;2024-03-23T02:47:43;3.60;;;3.00;;
1026;SDS011;502;48.746;9.214;2024-03-23T02:50:08;4.40;;;3.13;;
1026;SDS011;502;48.746;9.214;2024-03-23T02:52:35;4.10;;;3.20;;
1026;SDS011;502;48.746;9.214;2024-03-23T02:55:01;3.20;;;2.90;;
1026;SDS011;502;48.746;9.214;2024-03-23T02:57:29;5.17;;;3.10;;
1026;SDS011;502;48.746;9.214;2024-03-23T02:59:55;6.70;;;2.87;;
1026;SDS011;502;48.746;9.214;2024-03-23T03:02:21;5.00;;;3.37;;
1026;SDS011;502;48.746;9.214;2024-03-23T03:04:47;8.50;;;4.20;;
1026;SDS011;502;48.746;9.214;2024-03-23T03:07:13;3.43;;;3.13;;
1026;SDS011;502;48.746;9.214;2024-03-23T03:09:39;3.97;;;3.10;;
1026;SDS011;502;48.746;9.214;2024-03-23T03:12:06;3.13;;;2.83;;
1026;SDS011;502;48.746;9.214;2024-03-23T03:14:34;3.53;;;3.00;;
1026;SDS011;502;48.746;9.214;2024-03-23T03:17:00;4.33;;;2.97;;
1026;SDS011;502;48.746;9.214;2024-03-23T03:19:26;3.37;;;2.93;;
1026;SDS011;502;48.746;9.214;2024-03-23T03:21:52;4.17;;;3.63;;
1026;SDS011;502;48.746;9.214;2024-03-23T03:24:19;3.57;;;3.27;;
1026;SDS011;502;48.746;9.214;2024-03-23T03:26:44;4.57;;;3.30;;
1026;SDS011;502;48.746;9.214;2024-03-23T03:29:11;4.63;;;3.40;;
1026;SDS011;502;48.746;9.214;2024-03-23T03:31:38;3.27;;;2.97;;
1026;SDS011;502;48.746;9.214;2024-03-23T03:34:04;5.60;;;2.80;;
1026;SDS011;502;48.746;9.214;2024-03-23T03:36:30;3.67;;;3.20;;
1026;SDS011;502;48.746;9.214;2024-03-23T03:38:57;3.33;;;2.97;;
1026;SDS011;502;48.746;9.214;2024-03-23T03:41:22;3.53;;;2.77;;
1026;SDS011;502;48.746;9.214;2024-03-23T03:43:49;4.00;;;3.00;;
1026;SDS011;502;48.746;9.214;2024-03-23T03:46:14;3.70;;;3.07;;
1026;SDS011;502;48.746;9.214;2024-03-23T03:48:42;3.97;;;3.27;;
1026;SDS011;502;48.746;9.214;2024-03-23T03:51:10;4.07;;;3.40;;
1026;SDS011;502;48.746;9.214;2024-03-23T03:53:36;3.90;;;3.50;;
1026;SDS011;502;48.746;9.214;2024-03-23T03:56:02;3.70;;;3.40;;
1026;SDS011;502;48.746;9.214;2024-03-23T03:58:29;5.97;;;3.70;;
1026;SDS011;502;48.746;9.214;2024-03-23T04:00:54;4.40;;;3.57;;
1026;SDS011;502;48.746;9.214;2024-03-23T04:03:21;3.73;;;3.27;;
1026;SDS011;502;48.746;9.214;2024-03-23T04:05:51;4.43;;;3.03;;
1026;SDS011;502;48.746;9.214;2024-03-23T04:08:17;4.07;;;3.70;;
1026;SDS011;502;48.746;9.214;2024-03-23T04:10:43;3.73;;;3.23;;
1026;SDS011;502;48.746;9.214;2024-03-23T04:13:09;3.50;;;3.20;;
1026;SDS011;502;48.746;9.214;2024-03-23T04:15:35;3.50;;;2.83;;
1026;SDS011;502;48.746;9.214;2024-03-23T04:18:01;3.87;;;3.50;;
1026;SDS011;502;48.746;9.214;2024-03-23T04:20:27;6.07;;;3.60;;
1026;SDS011;502;48.746;9.214;2024-03-23T04:22:55;3.97;;;3.10;;
1026;SDS011;502;48.746;9.214;2024-03-23T04:25:20;4.30;;;3.30;;
1026;SDS011;502;48.746;9.214;2024-03-23T04:27:47;3.53;;;3.23;;
1026;SDS011;502;48.746;9.214;2024-03-23T04:30:12;3.23;;;2.90;;
1026;SDS011;502;48.746;9.214;2024-03-23T04:32:40;3.87;;;3.47;;
1026;SDS011;502;48.746;9.214;2024-03-23T04:35:07;4.37;;;3.17;;
1026;SDS011;502;48.746;9.214;2024-03-23T04:37:34;4.20;;;3.60;;
1026;SDS011;502;48.746;9.214;2024-03-23T04:40:03;4.77;;;3.67;;
1026;SDS011;502;48.746;9.214;2024-03-23T04:42:31;5.27;;;3.50;;
1026;SDS011;502;48.746;9.214;2024-03-23T04:44:57;3.90;;;2.90;;
1026;SDS011;502;48.746;9.214;2024-03-23T04:47:24;6.80;;;3.27;;
1026;SDS011;502;48.746;9.214;2024-03-23T04:49:51;4.00;;;3.60;;
1026;SDS011;502;48.746;9.214;2024-03-23T04:52:18;5.67;;;4.00;;
1026;SDS011;502;48.746;9.214;2024-03-23T04:54:45;4.20;;;3.67;;
1026;SDS011;502;48.746;9.214;2024-03-23T04:57:12;4.13;;;3.73;;
1026;SDS011;502;48.746;9.214;2024-03-23T04:59:45;4.80;;;3.90;;
1026;SDS011;502;48.746;9.214;2024-03-23T05:02:12;4.40;;;3.67;;
1026;SDS011;502;48.746;9.214;2024-03-23T05:04:38;6.50;;;4.40;;
1026;SDS011;502;48.746;9.214;2024-03-23T05:07:05;6.00;;;5.03;;
1026;SDS011;502;48.746;9.214;2024-03-23T05:09:31;7.20;;;5.80;;
1026;SDS011;502;48.746;9.214;2024-03-23T05:11:58;8.80;;;7.73;;
1026;SDS011;502;48.746;9.214;2024-03-23T05:14:26;9.90;;;8.53;;
1026;SDS011;502;48.746;9.214;2024-03-23T05:16:53;9.40;;;8.40;;
1026;SDS011;502;48.746;9.214;2024-03-23T05:19:18;10.37;;;8.57;;
1026;SDS011;502;48.746;9.214;2024-03-23T05:21:45;12.40;;;10.20;;
1026;SDS011;502;48.746;9.214;2024-03-23T05:24:11;9.93;;;8.17;;
1026;SDS011;502;48.746;9.214;2024-03-23T05:26:38;12.07;;;10.23;;
1026;SDS011;502;48.746;9.214;2024-03-23T05:29:03;12.00;;;10.30;;
1026;SDS011;502;48.746;9.214;2024-03-23T05:31:33;12.20;;;10.90;;
1026;SDS011;502;48.746;9.214;2024-03-23T05:33:58;12.40;;;10.17;;
1026;SDS011;502;48.746;9.214;2024-03-23T05:36:25;12.03;;;9.83;;
1026;SDS011;502;48.746;9.214;2024-03-23T05:38:50;11.50;;;10.00;;
1026;SDS011;502;48.746;9.214;2024-03-23T05:41:17;14.20;;;10.17;;
1026;SDS011;502;48.746;9.214;2024-03-23T05:43:42;12.47;;;10.90;;
1026;SDS011;502;48.746;9.214;2024-03-23T05:46:09;14.00;;;10.97;;
1026;SDS011;502;48.746;9.214;2024-03-23T05:48:36;12.90;;;10.20;;
1026;SDS011;502;48.746;9.214;2024-03-23T05:51:03;10.93;;;9.53;;
1026;SDS011;502;48.746;9.214;2024-03-23T05:53:29;12.13;;;9.33;;
1026;SDS011;502;48.746;9.214;2024-03-23T05:56:00;12.90;;;10.30;;
1026;SDS011;502;48.746;9.214;2024-03-23T05:58:25;12.50;;;9.37;;
1026;SDS011;502;48.746;9.214;2024-03-23T06:00:56;12.83;;;8.93;;
1026;SDS011;502;48.746;9.214;2024-03-23T06:03:22;12.10;;;9.80;;
1026;SDS011;502;48.746;9.214;2024-03-23T06:05:50;9.27;;;7.53;;
1026;SDS011;502;48.746;9.214;2024-03-23T06:08:16;11.83;;;8.80;;
1026;SDS011;502;48.746;9.214;2024-03-23T06:10:43;10.57;;;7.50;;
1026;SDS011;502;48.746;9.214;2024-03-23T06:13:09;9.83;;;6.87;;
1026;SDS011;502;48.746;9.214;2024-03-23T06:15:35;7.47;;;5.80;;
1026;SDS011;502;48.746;9.214;2024-03-23T06:18:02;8.30;;;5.93;;
1026;SDS011;502;48.746;9.214;2024-03-23T06:20:29;6.27;;;4.67;;
1026;SDS011;502;48.746;9.214;2024-03-23T06:22:56;5.23;;;4.67;;
1026;SDS011;502;48.746;9.214;2024-03-23T06:25:23;4.40;;;3.20;;
1026;SDS011;502;48.746;9.214;2024-03-23T06:27:48;3.70;;;2.73;;
1026;SDS011;502;48.746;9.214;2024-03-23T06:30:15;3.40;;;2.67;;
1026;SDS011;502;48.746;9.214;2024-03-23T06:32:41;3.50;;;2.40;;
1026;SDS011;502;48.746;9.214;2024-03-23T06:35:07;3.43;;;2.00;;
1026;SDS011;502;48.746;9.214;2024-03-23T06:37:34;2.20;;;1.63;;
1026;SDS011;502;48.746;9.214;2024-03-23T06:40:03;2.80;;;2.13;;
1026;SDS011;502;48.746;9.214;2024-03-23T06:42:30;1.80;;;1.40;;
1026;SDS011;502;48.746;9.214;2024-03-23T06:44:56;1.30;;;1.13;;
1026;SDS011;502;48.746;9.214;2024-03-23T06:47:22;1.27;;;0.80;;
1026;SDS011;502;48.746;9.214;2024-03-23T06:49:48;1.33;;;0.80;;
1026;SDS011;502;48.746;9.214;2024-03-23T06:52:14;1.50;;;0.70;;
1026;SDS011;502;48.746;9.214;2024-03-23T06:54:40;3.23;;;0.77;;
1026;SDS011;502;48.746;9.214;2024-03-23T06:57:07;1.00;;;0.63;;
1026;SDS011;502;48.746;9.214;2024-03-23T06:59:34;1.20;;;0.73;;
1026;SDS011;502;48.746;9.214;2024-03-23T07:01:59;1.13;;;0.60;;
1026;SDS011;502;48.746;9.214;2024-03-23T07:04:26;1.17;;;0.60;;
1026;SDS011;502;48.746;9.214;2024-03-23T07:06:51;1.10;;;0.50;;
1026;SDS011;502;48.746;9.214;2024-03-23T07:09:18;0.90;;;0.50;;
1026;SDS011;502;48.746;9.214;2024-03-23T07:11:45;0.80;;;0.40;;
1026;SDS011;502;48.746;9.214;2024-03-23T07:14:12;1.27;;;0.80;;
1026;SDS011;502;48.746;9.214;2024-03-23T07:16:38;1.03;;;0.60;;
1026;SDS011;502;48.746;9.214;2024-03-23T07:19:04;1.30;;;0.90;;
1026;SDS011;502;48.746;9.214;2024-03-23T07:21:30;1.10;;;0.60;;
1026;SDS011;502;48.746;9.214;2024-03-23T07:23:57;1.00;;;0.57;;
1026;SDS011;502;48.746;9.214;2024-03-23T07:26:22;0.90;;;0.40;;
1026;SDS011;502;48.746;9.214;2024-03-23T07:28:49;1.10;;;0.50;;
1026;SDS011;502;48.746;9.214;2024-03-23T07:31:16;0.70;;;0.40;;
1026;SDS011;502;48.746;9.214;2024-03-23T07:33:43;0.90;;;0.40;;
1026;SDS011;502;48.746;9.214;2024-03-23T07:36:09;1.57;;;0.50;;
1026;SDS011;502;48.746;9.214;2024-03-23T07:38:36;0.90;;;0.53;;
1026;SDS011;502;48.746;9.214;2024-03-23T07:41:04;0.90;;;0.33;;
1026;SDS011;502;48.746;9.214;2024-03-23T07:43:31;0.90;;;0.60;;
1026;SDS011;502;48.746;9.214;2024-03-23T07:45:57;1.00;;;0.50;;
1026;SDS011;502;48.746;9.214;2024-03-23T07:48:25;0.90;;;0.40;;
1026;SDS011;502;48.746;9.214;2024-03-23T07:50:57;1.20;;;0.73;;
1026;SDS011;502;48.746;9.214;2024-03-23T07:53:25;0.90;;;0.40;;
1026;SDS011;502;48.746;9.214;2024-03-23T07:55:54;0.80;;;0.40;;
1026;SDS011;502;48.746;9.214;2024-03-23T07:58:21;0.80;;;0.40;;
1026;SDS011;502;48.746;9.214;2024-03-23T08:00:47;0.90;;;0.40;;
1026;SDS011;502;48.746;9.214;2024-03-23T08:03:14;0.87;;;0.50;;
1026;SDS011;502;48.746;9.214;2024-03-23T08:05:40;1.00;;;0.40;;
1026;SDS011;502;48.746;9.214;2024-03-23T08:08:07;1.20;;;0.60;;
1026;SDS011;502;48.746;9.214;2024-03-23T08:10:32;1.03;;;0.50;;
1026;SDS011;502;48.746;9.214;2024-03-23T08:12:59;0.90;;;0.40;;
1026;SDS011;502;48.746;9.214;2024-03-23T08:15:25;1.10;;;0.60;;
1026;SDS011;502;48.746;9.214;2024-03-23T08:17:51;0.70;;;0.37;;
1026;SDS011;502;48.746;9.214;2024-03-23T08:20:17;1.13;;;0.73;;
1026;SDS011;502;48.746;9.214;2024-03-23T08:22:45;1.20;;;0.60;;
1026;SDS011;502;48.746;9.214;2024-03-23T08:25:10;1.10;;;0.57;;
1026;SDS011;502;48.746;9.214;2024-03-23T08:27:37;1.00;;;0.50;;
1026;SDS011;502;48.746;9.214;2024-03-23T08:30:03;1.10;;;0.60;;
1026;SDS011;502;48.746;9.214;2024-03-23T08:32:30;1.37;;;1.00;;
1026;SDS011;502;48.746;9.214;2024-03-23T08:34:55;1.27;;;0.77;;
1026;SDS011;502;48.746;9.214;2024-03-23T08:37:22;0.97;;;0.70;;
1026;SDS011;502;48.746;9.214;2024-03-23T08:39:51;1.10;;;0.70;;
1026;SDS011;502;48.746;9.214;2024-03-23T08:42:18;2.73;;;0.90;;
1026;SDS011;502;48.746;9.214;2024-03-23T08:44:44;1.33;;;0.80;;
1026;SDS011;502;48.746;9.214;2024-03-23T08:47:14;1.83;;;1.13;;
1026;SDS011;502;48.746;9.214;2024-03-23T08:49:40;1.60;;;1.40;;
1026;SDS011;502;48.746;9.214;2024-03-23T08:52:06;1.70;;;1.20;;
1026;SDS011;502;48.746;9.214;2024-03-23T08:54:32;2.83;;;1.20;;
1026;SDS011;502;48.746;9.214;2024-03-23T08:57:00;1.60;;;1.20;;
1026;SDS011;502;48.746;9.214;2024-03-23T08:59:26;1.50;;;1.20;;
1026;SDS011;502;48.746;9.214;2024-03-23T09:01:52;1.57;;;1.23;;
1026;SDS011;502;48.746;9.214;2024-03-23T09:04:19;2.10;;;1.17;;
1026;SDS011;502;48.746;9.214;2024-03-23T09:06:46;1.50;;;1.10;;
1026;SDS011;502;48.746;9.214;2024-03-23T09:09:12;2.13;;;1.40;;
1026;SDS011;502;48.746;9.214;2024-03-23T09:11:38;2.07;;;1.20;;
1026;SDS011;502;48.746;9.214;2024-03-23T09:14:05;2.00;;;1.43;;
1026;SDS011;502;48.746;9.214;2024-03-23T09:16:32;3.80;;;1.80;;
1026;SDS011;502;48.746;9.214;2024-03-23T09:18:57;3.63;;;1.90;;
1026;SDS011;502;48.746;9.214;2024-03-23T09:21:24;3.90;;;1.80;;
1026;SDS011;502;48.746;9.214;2024-03-23T09:23:49;1.70;;;1.47;;
1026;SDS011;502;48.746;9.214;2024-03-23T09:26:16;1.93;;;1.67;;
1026;SDS011;502;48.746;9.214;2024-03-23T09:28:41;3.10;;;2.17;;
1026;SDS011;502;48.746;9.214;2024-03-23T09:31:09;3.60;;;2.07;;
1026;SDS011;502;48.746;9.214;2024-03-23T09:33:39;4.60;;;2.70;;
1026;SDS011;502;48.746;9.214;2024-03-23T09:36:06;3.80;;;2.00;;
1026;SDS011;502;48.746;9.214;2024-03-23T09:38:32;4.37;;;2.40;;
1026;SDS011;502;48.746;9.214;2024-03-23T09:40:59;6.47;;;2.60;;
1026;SDS011;502;48.746;9.214;2024-03-23T09:43:25;3.80;;;2.90;;
1026;SDS011;502;48.746;9.214;2024-03-23T09:45:54;4.53;;;2.90;;
1026;SDS011;502;48.746;9.214;2024-03-23T09:48:21;4.20;;;3.10;;
1026;SDS011;502;48.746;9.214;2024-03-23T09:50:47;2.97;;;2.67;;
1026;SDS011;502;48.746;9.214;2024-03-23T09:53:14;5.23;;;2.70;;
1026;SDS011;502;48.746;9.214;2024-03-23T09:55:41;5.13;;;2.80;;
1026;SDS011;502;48.746;9.214;2024-03-23T09:58:07;4.43;;;2.83;;
1026;SDS011;502;48.746;9.214;2024-03-23T10:00:34;4.37;;;3.03;;
1026;SDS011;502;48.746;9.214;2024-03-23T10:03:00;6.20;;;3.10;;
1026;SDS011;502;48.746;9.214;2024-03-23T10:05:29;4.60;;;2.60;;
1026;SDS011;502;48.746;9.214;2024-03-23T10:07:56;4.70;;;3.20;;
1026;SDS011;502;48.746;9.214;2024-03-23T10:10:24;5.23;;;3.07;;
1026;SDS011;502;48.746;9.214;2024-03-23T10:12:50;5.57;;;2.87;;
1026;SDS011;502;48.746;9.214;2024-03-23T10:15:18;3.53;;;3.07;;
1026;SDS011;502;48.746;9.214;2024-03-23T10:17:44;6.20;;;3.47;;
1026;SDS011;502;48.746;9.214;2024-03-23T10:20:11;5.60;;;3.43;;
1026;SDS011;502;48.746;9.214;2024-03-23T10:22:38;4.90;;;2.80;;
1026;SDS011;502;48.746;9.214;2024-03-23T10:25:08;4.63;;;2.90;;
1026;SDS011;502;48.746;9.214;2024-03-23T10:27:35;4.20;;;3.10;;
1026;SDS011;502;48.746;9.214;2024-03-23T10:30:07;5.50;;;3.03;;
1026;SDS011;502;48.746;9.214;2024-03-23T10:32:34;8.77;;;3.10;;
1026;SDS011;502;48.746;9.214;2024-03-23T10:35:13;5.33;;;4.00;;
1026;SDS011;502;48.746;9.214;2024-03-23T10:37:40;5.43;;;3.50;;
1026;SDS011;502;48.746;9.214;2024-03-23T10:40:08;4.47;;;2.60;;
1026;SDS011;502;48.746;9.214;2024-03-23T10:42:35;6.07;;;3.13;;
1026;SDS011;502;48.746;9.214;2024-03-23T10:45:03;5.03;;;3.00;;
1026;SDS011;502;48.746;9.214;2024-03-23T10:47:29;4.93;;;2.90;;
1026;SDS011;502;48.746;9.214;2024-03-23T10:49:56;6.83;;;3.70;;
1026;SDS011;502;48.746;9.214;2024-03-23T10:52:21;5.73;;;3.93;;
1026;SDS011;502;48.746;9.214;2024-03-23T10:54:49;3.60;;;2.60;;
1026;SDS011;502;48.746;9.214;2024-03-23T10:57:17;5.33;;;3.23;;
1026;SDS011;502;48.746;9.214;2024-03-23T10:59:44;6.47;;;3.30;;
1026;SDS011;502;48.746;9.214;2024-03-23T11:02:18;3.70;;;2.90;;
1026;SDS011;502;48.746;9.214;2024-03-23T11:04:45;4.63;;;2.67;;
1026;SDS011;502;48.746;9.214;2024-03-23T11:07:28;2.80;;;1.37;;
1026;SDS011;502;48.746;9.214;2024-03-23T11:09:57;2.83;;;1.80;;
1026;SDS011;502;48.746;9.214;2024-03-23T11:12:27;2.77;;;2.27;;
1026;SDS011;502;48.746;9.214;2024-03-23T11:15:00;3.20;;;2.07;;
1026;SDS011;502;48.746;9.214;2024-03-23T11:17:26;3.10;;;2.23;;
1026;SDS011;502;48.746;9.214;2024-03-23T11:19:54;3.30;;;1.97;;
1026;SDS011;502;48.746;9.214;2024-03-23T11:25:17;3.50;;;2.00;;
1026;SDS011;502;48.746;9.214;2024-03-23T11:27:45;3.00;;;2.20;;
1026;SDS011;502;48.746;9.214;2024-03-23T11:30:12;2.30;;;1.80;;
1026;SDS011;502;48.746;9.214;2024-03-23T11:32:39;4.03;;;1.90;;
1026;SDS011;502;48.746;9.214;2024-03-23T11:35:06;3.30;;;2.00;;
1026;SDS011;502;48.746;9.214;2024-03-23T11:37:32;3.93;;;2.67;;
1026;SDS011;502;48.746;9.214;2024-03-23T11:39:58;2.60;;;1.43;;
1026;SDS011;502;48.746;9.214;2024-03-23T11:42:25;2.83;;;1.93;;
1026;SDS011;502;48.746;9.214;2024-03-23T11:44:51;5.80;;;2.87;;
1026;SDS011;502;48.746;9.214;2024-03-23T11:47:17;2.43;;;1.90;;
1026;SDS011;502;48.746;9.214;2024-03-23T11:49:43;3.10;;;1.80;;
1026;SDS011;502;48.746;9.214;2024-03-23T11:52:10;6.80;;;2.40;;
1026;SDS011;502;48.746;9.214;2024-03-23T11:54:36;3.30;;;1.73;;
1026;SDS011;502;48.746;9.214;2024-03-23T11:57:02;3.30;;;1.93;;
1026;SDS011;502;48.746;9.214;2024-03-23T11:59:32;2.20;;;1.87;;
1026;SDS011;502;48.746;9.214;2024-03-23T12:01:58;2.70;;;1.80;;
1026;SDS011;502;48.746;9.214;2024-03-23T12:04:25;4.30;;;1.90;;
1026;SDS011;502;48.746;9.214;2024-03-23T12:06:51;4.87;;;1.73;;
1026;SDS011;502;48.746;9.214;2024-03-23T12:09:35;2.90;;;1.60;;
1026;SDS011;502;48.746;9.214;2024-03-23T12:12:05;3.17;;;1.10;;
1026;SDS011;502;48.746;9.214;2024-03-23T12:14:34;2.80;;;1.90;;
1026;SDS011;502;48.746;9.214;2024-03-23T12:17:07;3.87;;;1.63;;
1026;SDS011;502;48.746;9.214;2024-03-23T12:19:34;2.07;;;1.37;;
1026;SDS011;502;48.746;9.214;2024-03-23T12:22:00;4.43;;;2.33;;
1026;SDS011;502;48.746;9.214;2024-03-23T12:24:27;3.00;;;1.47;;
1026;SDS011;502;48.746;9.214;2024-03-23T12:26:53;5.20;;;1.67;;
1026;SDS011;502;48.746;9.214;2024-03-23T12:29:20;3.40;;;2.00;;
1026;SDS011;502;48.746;9.214;2024-03-23T12:31:47;5.00;;;1.90;;
1026;SDS011;502;48.746;9.214;2024-03-23T12:34:13;2.97;;;1.80;;
1026;SDS011;502;48.746;9.214;2024-03-23T12:36:39;4.47;;;2.40;;
1026;SDS011;502;48.746;9.214;2024-03-23T12:39:05;3.20;;;1.90;;
1026;SDS011;502;48.746;9.214;2024-03-23T12:41:31;4.53;;;1.80;;
1026;SDS011;502;48.746;9.214;2024-03-23T12:43:58;2.83;;;1.50;;
1026;SDS011;502;48.746;9.214;2024-03-23T12:46:24;4.97;;;2.20;;
1026;SDS011;502;48.746;9.214;2024-03-23T12:48:52;6.30;;;2.00;;
1026;SDS011;502;48.746;9.214;2024-03-23T12:51:18;2.23;;;1.57;;
1026;SDS011;502;48.746;9.214;2024-03-23T12:53:44;3.20;;;2.03;;
1026;SDS011;502;48.746;9.214;2024-03-23T12:56:11;4.67;;;1.73;;
1026;SDS011;502;48.746;9.214;2024-03-23T12:58:37;2.97;;;1.93;;
1026;SDS011;502;48.746;9.214;2024-03-23T13:01:03;3.90;;;2.70;;
1026;SDS011;502;48.746;9.214;2024-03-23T13:03:29;3.10;;;2.13;;
1026;SDS011;502;48.746;9.214;2024-03-23T13:05:57;4.20;;;2.30;;
1026;SDS011;502;48.746;9.214;2024-03-23T13:08:22;5.17;;;2.40;;
1026;SDS011;502;48.746;9.214;2024-03-23T13:10:51;7.40;;;2.60;;
1026;SDS011;502;48.746;9.214;2024-03-23T13:13:16;3.10;;;2.03;;
1026;SDS011;502;48.746;9.214;2024-03-23T13:15:49;3.57;;;2.33;;
1026;SDS011;502;48.746;9.214;2024-03-23T13:18:14;7.00;;;2.70;;
1026;SDS011;502;48.746;9.214;2024-03-23T13:20:41;4.00;;;2.57;;
1026;SDS011;502;48.746;9.214;2024-03-23T13:23:08;6.10;;;2.60;;
1026;SDS011;502;48.746;9.214;2024-03-23T13:25:34;5.87;;;2.40;;
1026;SDS011;502;48.746;9.214;2024-03-23T13:28:01;5.50;;;2.90;;
1026;SDS011;502;48.746;9.214;2024-03-23T13:30:27;3.30;;;2.50;;
1026;SDS011;502;48.746;9.214;2024-03-23T13:32:53;4.80;;;2.40;;
1026;SDS011;502;48.746;9.214;2024-03-23T13:35:19;3.17;;;1.70;;
1026;SDS011;502;48.746;9.214;2024-03-23T13:37:45;4.17;;;1.63;;
1026;SDS011;502;48.746;9.214;2024-03-23T13:40:13;2.20;;;1.03;;
1026;SDS011;502;48.746;9.214;2024-03-23T13:42:38;1.73;;;1.00;;
1026;SDS011;502;48.746;9.214;2024-03-23T13:45:05;1.83;;;0.90;;
1026;SDS011;502;48.746;9.214;2024-03-23T13:47:31;2.73;;;0.90;;
1026;SDS011;502;48.746;9.214;2024-03-23T13:49:58;2.17;;;0.80;;
1026;SDS011;502;48.746;9.214;2024-03-23T13:52:23;2.10;;;1.30;;
1026;SDS011;502;48.746;9.214;2024-03-23T13:54:51;1.63;;;1.03;;
1026;SDS011;502;48.746;9.214;2024-03-23T13:57:18;2.03;;;1.17;;
1026;SDS011;502;48.746;9.214;2024-03-23T13:59:46;2.10;;;1.17;;
1026;SDS011;502;48.746;9.214;2024-03-23T14:02:12;1.50;;;1.00;;
1026;SDS011;502;48.746;9.214;2024-03-23T14:04:39;1.80;;;1.20;;
1026;SDS011;502;48.746;9.214;2024-03-23T14:07:05;1.90;;;1.60;;
1026;SDS011;502;48.746;9.214;2024-03-23T14:09:32;2.67;;;1.13;;
1026;SDS011;502;48.746;9.214;2024-03-23T14:11:58;2.53;;;1.47;;
1026;SDS011;502;48.746;9.214;2024-03-23T14:14:26;3.03;;;1.50;;
1026;SDS011;502;48.746;9.214;2024-03-23T14:16:52;1.63;;;1.20;;
1026;SDS011;502;48.746;9.214;2024-03-23T14:19:19;2.70;;;1.60;;
1026;SDS011;502;48.746;9.214;2024-03-23T14:21:44;2.43;;;1.40;;
1026;SDS011;502;48.746;9.214;2024-03-23T14:24:11;2.00;;;0.87;;
1026;SDS011;502;48.746;9.214;2024-03-23T14:26:36;2.20;;;0.87;;
1026;SDS011;502;48.746;9.214;2024-03-23T14:29:03;1.93;;;0.90;;
1026;SDS011;502;48.746;9.214;2024-03-23T14:31:30;1.17;;;0.87;;
1026;SDS011;502;48.746;9.214;2024-03-23T14:33:57;1.80;;;1.13;;
1026;SDS011;502;48.746;9.214;2024-03-23T14:36:22;4.70;;;1.57;;
1026;SDS011;502;48.746;9.214;2024-03-23T14:38:50;1.80;;;1.30;;
1026;SDS011;502;48.746;9.214;2024-03-23T14:41:15;2.80;;;0.80;;
1026;SDS011;502;48.746;9.214;2024-03-23T14:43:42;1.60;;;0.90;;
1026;SDS011;502;48.746;9.214;2024-03-23T14:46:09;1.40;;;0.70;;
1026;SDS011;502;48.746;9.214;2024-03-23T14:48:37;1.80;;;0.90;;
1026;SDS011;502;48.746;9.214;2024-03-23T14:51:03;2.70;;;1.07;;
1026;SDS011;502;48.746;9.214;2024-03-23T14:53:31;2.57;;;1.40;;
1026;SDS011;502;48.746;9.214;2024-03-23T14:55:56;1.97;;;1.10;;
1026;SDS011;502;48.746;9.214;2024-03-23T14:58:23;2.13;;;0.97;;
1026;SDS011;502;48.746;9.214;2024-03-23T15:00:49;1.87;;;1.00;;
1026;SDS011;502;48.746;9.214;2024-03-23T15:03:16;2.27;;;1.10;;
1026;SDS011;502;48.746;9.214;2024-03-23T15:05:43;2.97;;;1.43;;
1026;SDS011;502;48.746;9.214;2024-03-23T15:08:18;2.20;;;1.30;;
1026;SDS011;502;48.746;9.214;2024-03-23T15:10:44;1.37;;;0.90;;
1026;SDS011;502;48.746;9.214;2024-03-23T15:13:10;1.50;;;0.80;;
1026;SDS011;502;48.746;9.214;2024-03-23T15:15:37;1.93;;;0.83;;
1026;SDS011;502;48.746;9.214;2024-03-23T15:18:05;1.93;;;1.23;;
1026;SDS011;502;48.746;9.214;2024-03-23T15:20:31;2.20;;;1.10;;
1026;SDS011;502;48.746;9.214;2024-03-23T15:23:02;2.17;;;1.03;;
1026;SDS011;502;48.746;9.214;2024-03-23T15:25:27;4.20;;;1.40;;
1026;SDS011;502;48.746;9.214;2024-03-23T15:27:54;1.60;;;0.90;;
1026;SDS011;502;48.746;9.214;2024-03-23T15:30:20;3.20;;;0.97;;
1026;SDS011;502;48.746;9.214;2024-03-23T15:32:46;1.50;;;1.10;;
1026;SDS011;502;48.746;9.214;2024-03-23T15:35:12;4.33;;;1.10;;
1026;SDS011;502;48.746;9.214;2024-03-23T15:37:38;1.93;;;0.90;;
1026;SDS011;502;48.746;9.214;2024-03-23T15:40:07;1.33;;;1.00;;
1026;SDS011;502;48.746;9.214;2024-03-23T15:42:35;1.80;;;1.10;;
1026;SDS011;502;48.746;9.214;2024-03-23T15:45:00;2.87;;;1.07;;
1026;SDS011;502;48.746;9.214;2024-03-23T15:47:28;1.20;;;1.00;;
1026;SDS011;502;48.746;9.214;2024-03-23T15:49:54;1.60;;;1.03;;
1026;SDS011;502;48.746;9.214;2024-03-23T15:52:21;1.60;;;1.00;;
1026;SDS011;502;48.746;9.214;2024-03-23T15:54:46;1.40;;;1.00;;
1026;SDS011;502;48.746;9.214;2024-03-23T15:57:14;1.87;;;1.20;;
1026;SDS011;502;48.746;9.214;2024-03-23T15:59:41;2.07;;;1.20;;
1026;SDS011;502;48.746;9.214;2024-03-23T16:02:07;1.60;;;1.00;;
1026;SDS011;502;48.746;9.214;2024-03-23T16:04:33;1.37;;;0.90;;
1026;SDS011;502;48.746;9.214;2024-03-23T16:06:59;1.90;;;1.23;;
1026;SDS011;502;48.746;9.214;2024-03-23T16:09:25;2.77;;;1.10;;
1026;SDS011;502;48.746;9.214;2024-03-23T16:11:53;4.40;;;1.00;;
1026;SDS011;502;48.746;9.214;2024-03-23T16:14:20;2.23;;;1.00;;
1026;SDS011;502;48.746;9.214;2024-03-23T16:16:47;1.70;;;1.00;;
1026;SDS011;502;48.746;9.214;2024-03-23T16:19:22;1.30;;;1.10;;
1026;SDS011;502;48.746;9.214;2024-03-23T16:21:51;4.90;;;1.20;;
1026;SDS011;502;48.746;9.214;2024-03-23T16:24:17;1.53;;;0.80;;